sensor_id;sensor_type;location;lat;lon;timestamp;pressure;altitude;pressure_sealevel;temperature;humidity
22440;BME280;11387;51.612;7.210;2023-11-19T00:00:27;99993.63;;;9.69;100.00
22440;BME280;11387;51.612;7.210;2023-11-19T00:02:56;100004.38;;;9.66;100.00
22440;BME280;11387;51.612;7.210;2023-11-19T00:05:26;99999.00;;;9.74;100.00
22440;BME280;11387;51.612;7.210;2023-11-19T00:07:54;99997.19;;;9.70;100.00
22440;BME280;11387;51.612;7.210;2023-11-19T00:10:23;100001.22;;;9.72;100.00
22440;BME280;11387;51.612;7.210;2023-11-19T00:12:52;99995.16;;;9.75;100.00
22440;BME280;11387;51.612;7.210;2023-11-19T00:15:21;99990.19;;;9.77;100.00
22440;BME280;11387;51.612;7.210;2023-11-19T00:17:51;99992.91;;;9.77;100.00
22440;BME280;11387;51.612;7.210;2023-11-19T00:20:20;99985.19;;;9.79;100.00
22440;BME280;11387;51.612;7.210;2023-11-19T00:22:51;99984.56;;;9.83;100.00
22440;BME280;11387;51.612;7.210;2023-11-19T00:25:21;99979.91;;;9.83;100.00
22440;BME280;11387;51.612;7.210;2023-11-19T00:27:50;99987.63;;;9.81;100.00
22440;BME280;11387;51.612;7.210;2023-11-19T00:30:21;99986.38;;;9.87;100.00
22440;BME280;11387;51.612;7.210;2023-11-19T00:32:49;99976.88;;;9.85;100.00
22440;BME280;11387;51.612;7.210;2023-11-19T00:35:18;99979.06;;;9.96;100.00
22440;BME280;11387;51.612;7.210;2023-11-19T00:37:47;99975.41;;;10.01;100.00
22440;BME280;11387;51.612;7.210;2023-11-19T00:40:18;99965.78;;;10.03;100.00
22440;BME280;11387;51.612;7.210;2023-11-19T00:42:49;99967.72;;;10.03;100.00
22440;BME280;11387;51.612;7.210;2023-11-19T00:45:18;99965.97;;;10.07;100.00
22440;BME280;11387;51.612;7.210;2023-11-19T00:47:46;99950.53;;;10.11;100.00
22440;BME280;11387;51.612;7.210;2023-11-19T00:50:15;99954.69;;;10.22;100.00
22440;BME280;11387;51.612;7.210;2023-11-19T00:52:44;99945.34;;;10.23;100.00
22440;BME280;11387;51.612;7.210;2023-11-19T00:55:14;99948.19;;;10.18;100.00
22440;BME280;11387;51.612;7.210;2023-11-19T00:57:44;99958.72;;;10.25;100.00
22440;BME280;11387;51.612;7.210;2023-11-19T01:00:13;99949.25;;;10.31;100.00
22440;BME280;11387;51.612;7.210;2023-11-19T01:02:47;99931.13;;;10.35;100.00
22440;BME280;11387;51.612;7.210;2023-11-19T01:05:19;99936.41;;;10.31;100.00
22440;BME280;11387;51.612;7.210;2023-11-19T01:07:50;99935.16;;;10.37;100.00
22440;BME280;11387;51.612;7.210;2023-11-19T01:10:21;99933.53;;;10.36;100.00
22440;BME280;11387;51.612;7.210;2023-11-19T01:12:51;99934.50;;;10.40;100.00
22440;BME280;11387;51.612;7.210;2023-11-19T01:15:20;99938.22;;;10.44;100.00
22440;BME280;11387;51.612;7.210;2023-11-19T01:17:49;99943.19;;;10.42;100.00
22440;BME280;11387;51.612;7.210;2023-11-19T01:20:20;99953.69;;;10.49;100.00
22440;BME280;11387;51.612;7.210;2023-11-19T01:22:49;99946.59;;;10.48;100.00
22440;BME280;11387;51.612;7.210;2023-11-19T01:25:18;99947.41;;;10.49;100.00
22440;BME280;11387;51.612;7.210;2023-11-19T01:27:47;99951.00;;;10.58;100.00
22440;BME280;11387;51.612;7.210;2023-11-19T01:30:18;99942.44;;;10.51;100.00
22440;BME280;11387;51.612;7.210;2023-11-19T01:32:47;99941.50;;;10.55;100.00
22440;BME280;11387;51.612;7.210;2023-11-19T01:35:16;99938.78;;;10.55;100.00
22440;BME280;11387;51.612;7.210;2023-11-19T01:37:44;99946.53;;;10.62;100.00
22440;BME280;11387;51.612;7.210;2023-11-19T01:40:13;99935.59;;;10.62;100.00
22440;BME280;11387;51.612;7.210;2023-11-19T01:42:42;99942.66;;;10.63;100.00
22440;BME280;11387;51.612;7.210;2023-11-19T01:45:26;99928.53;;;10.69;100.00
22440;BME280;11387;51.612;7.210;2023-11-19T01:47:56;99920.47;;;10.73;100.00
22440;BME280;11387;51.612;7.210;2023-11-19T01:50:25;99917.44;;;10.74;100.00
22440;BME280;11387;51.612;7.210;2023-11-19T01:52:55;99910.53;;;10.77;100.00
22440;BME280;11387;51.612;7.210;2023-11-19T01:55:25;99915.72;;;10.87;100.00
22440;BME280;11387;51.612;7.210;2023-11-19T01:57:59;99910.06;;;10.84;100.00
22440;BME280;11387;51.612;7.210;2023-11-19T02:00:31;99906.22;;;10.85;100.00
22440;BME280;11387;51.612;7.210;2023-11-19T02:03:02;99897.69;;;10.86;100.00
22440;BME280;11387;51.612;7.210;2023-11-19T02:05:31;99893.69;;;10.92;100.00
22440;BME280;11387;51.612;7.210;2023-11-19T02:08:00;99899.16;;;10.92;100.00
22440;BME280;11387;51.612;7.210;2023-11-19T02:10:29;99902.53;;;10.98;100.00
22440;BME280;11387;51.612;7.210;2023-11-19T02:12:59;99898.38;;;11.00;100.00
22440;BME280;11387;51.612;7.210;2023-11-19T02:15:34;99888.06;;;10.97;100.00
22440;BME280;11387;51.612;7.210;2023-11-19T02:18:22;99884.19;;;10.98;100.00
22440;BME280;11387;51.612;7.210;2023-11-19T02:20:51;99882.72;;;11.01;100.00
22440;BME280;11387;51.612;7.210;2023-11-19T02:23:21;99870.50;;;11.07;100.00
22440;BME280;11387;51.612;7.210;2023-11-19T02:26:08;99865.03;;;11.07;100.00
22440;BME280;11387;51.612;7.210;2023-11-19T02:28:42;99878.22;;;11.05;100.00
22440;BME280;11387;51.612;7.210;2023-11-19T02:31:11;99889.97;;;11.05;100.00
22440;BME280;11387;51.612;7.210;2023-11-19T02:33:40;99889.97;;;11.05;100.00
22440;BME280;11387;51.612;7.210;2023-11-19T02:36:09;99882.44;;;11.11;100.00
22440;BME280;11387;51.612;7.210;2023-11-19T02:38:38;99871.16;;;11.12;100.00
22440;BME280;11387;51.612;7.210;2023-11-19T02:41:07;99861.66;;;11.19;100.00
22440;BME280;11387;51.612;7.210;2023-11-19T02:43:37;99856.03;;;11.15;100.00
22440;BME280;11387;51.612;7.210;2023-11-19T02:46:26;99848.13;;;11.13;100.00
22440;BME280;11387;51.612;7.210;2023-11-19T02:48:54;99860.84;;;11.09;100.00
22440;BME280;11387;51.612;7.210;2023-11-19T02:51:31;99867.47;;;11.17;100.00
22440;BME280;11387;51.612;7.210;2023-11-19T02:53:59;99863.44;;;11.23;100.00
22440;BME280;11387;51.612;7.210;2023-11-19T02:56:27;99860.72;;;11.23;100.00
22440;BME280;11387;51.612;7.210;2023-11-19T02:59:02;99861.66;;;11.19;100.00
22440;BME280;11387;51.612;7.210;2023-11-19T03:01:37;99866.50;;;11.22;100.00
22440;BME280;11387;51.612;7.210;2023-11-19T03:04:10;99849.28;;;11.21;100.00
22440;BME280;11387;51.612;7.210;2023-11-19T03:06:44;99851.69;;;11.23;100.00
22440;BME280;11387;51.612;7.210;2023-11-19T03:09:15;99845.75;;;11.29;100.00
22440;BME280;11387;51.612;7.210;2023-11-19T03:11:44;99839.44;;;11.29;100.00
22440;BME280;11387;51.612;7.210;2023-11-19T03:14:12;99843.16;;;11.24;100.00
22440;BME280;11387;51.612;7.210;2023-11-19T03:16:44;99835.25;;;11.23;100.00
22440;BME280;11387;51.612;7.210;2023-11-19T03:19:13;99854.09;;;11.16;100.00
22440;BME280;11387;51.612;7.210;2023-11-19T03:21:52;99849.44;;;11.25;100.00
22440;BME280;11387;51.612;7.210;2023-11-19T03:24:21;99842.50;;;11.19;100.00
22440;BME280;11387;51.612;7.210;2023-11-19T03:26:49;99828.97;;;11.13;100.00
22440;BME280;11387;51.612;7.210;2023-11-19T03:29:18;99837.81;;;11.10;100.00
22440;BME280;11387;51.612;7.210;2023-11-19T03:31:48;99830.25;;;11.16;100.00
22440;BME280;11387;51.612;7.210;2023-11-19T03:34:17;99839.94;;;11.22;100.00
22440;BME280;11387;51.612;7.210;2023-11-19T03:36:46;99847.34;;;11.30;100.00
22440;BME280;11387;51.612;7.210;2023-11-19T03:39:14;99842.69;;;11.31;100.00
22440;BME280;11387;51.612;7.210;2023-11-19T03:41:45;99846.53;;;11.30;100.00
22440;BME280;11387;51.612;7.210;2023-11-19T03:44:14;99855.88;;;11.29;100.00
22440;BME280;11387;51.612;7.210;2023-11-19T03:46:42;99846.38;;;11.26;100.00
22440;BME280;11387;51.612;7.210;2023-11-19T03:49:12;99860.22;;;11.21;100.00
22440;BME280;11387;51.612;7.210;2023-11-19T03:51:41;99861.03;;;11.22;100.00
22440;BME280;11387;51.612;7.210;2023-11-19T03:54:09;99858.75;;;11.15;100.00
22440;BME280;11387;51.612;7.210;2023-11-19T03:56:38;99858.59;;;11.11;100.00
22440;BME280;11387;51.612;7.210;2023-11-19T03:59:07;99857.00;;;11.19;100.00
22440;BME280;11387;51.612;7.210;2023-11-19T04:01:37;99861.66;;;11.19;100.00
22440;BME280;11387;51.612;7.210;2023-11-19T04:04:05;99868.75;;;11.20;100.00
22440;BME280;11387;51.612;7.210;2023-11-19T04:06:35;99861.03;;;11.22;100.00
22440;BME280;11387;51.612;7.210;2023-11-19T04:09:04;99860.06;;;11.18;100.00
22440;BME280;11387;51.612;7.210;2023-11-19T04:11:33;99871.78;;;11.09;100.00
22440;BME280;11387;51.612;7.210;2023-11-19T04:14:01;99865.03;;;11.07;100.00
22440;BME280;11387;51.612;7.210;2023-11-19T04:16:30;99862.13;;;11.12;100.00
22440;BME280;11387;51.612;7.210;2023-11-19T04:18:58;99862.59;;;11.05;100.00
22440;BME280;11387;51.612;7.210;2023-11-19T04:21:27;99861.19;;;10.99;100.00
22440;BME280;11387;51.612;7.210;2023-11-19T04:23:57;99867.59;;;10.95;100.00
22440;BME280;11387;51.612;7.210;2023-11-19T04:26:25;99856.16;;;10.93;100.00
22440;BME280;11387;51.612;7.210;2023-11-19T04:28:54;99863.69;;;10.78;100.00
22440;BME280;11387;51.612;7.210;2023-11-19T04:31:23;99871.56;;;10.71;100.00
22440;BME280;11387;51.612;7.210;2023-11-19T04:33:51;99872.38;;;10.80;100.00
22440;BME280;11387;51.612;7.210;2023-11-19T04:36:22;99868.00;;;10.71;100.00
22440;BME280;11387;51.612;7.210;2023-11-19T04:38:51;99877.50;;;10.73;100.00
22440;BME280;11387;51.612;7.210;2023-11-19T04:41:21;99868.34;;;10.69;100.00
22440;BME280;11387;51.612;7.210;2023-11-19T04:43:49;99876.38;;;10.66;100.00
22440;BME280;11387;51.612;7.210;2023-11-19T04:46:18;99882.31;;;10.59;100.00
22440;BME280;11387;51.612;7.210;2023-11-19T04:48:47;99870.56;;;10.59;100.00
22440;BME280;11387;51.612;7.210;2023-11-19T04:51:15;99871.47;;;10.45;100.00
22440;BME280;11387;51.612;7.210;2023-11-19T04:53:44;99862.31;;;10.50;100.00
22440;BME280;11387;51.612;7.210;2023-11-19T04:56:12;99873.38;;;10.36;100.00
22440;BME280;11387;51.612;7.210;2023-11-19T04:58:43;99883.69;;;10.39;100.00
22440;BME280;11387;51.612;7.210;2023-11-19T05:01:14;99882.72;;;10.35;100.00
22440;BME280;11387;51.612;7.210;2023-11-19T05:03:44;99889.69;;;10.19;100.00
22440;BME280;11387;51.612;7.210;2023-11-19T05:06:13;99889.06;;;10.22;100.00
22440;BME280;11387;51.612;7.210;2023-11-19T05:08:42;99880.59;;;10.10;100.00
22440;BME280;11387;51.612;7.210;2023-11-19T05:11:11;99878.06;;;10.13;100.00
22440;BME280;11387;51.612;7.210;2023-11-19T05:13:46;99879.34;;;10.16;100.00
22440;BME280;11387;51.612;7.210;2023-11-19T05:16:15;99876.41;;;10.04;100.00
22440;BME280;11387;51.612;7.210;2023-11-19T05:18:44;99886.41;;;10.08;100.00
22440;BME280;11387;51.612;7.210;2023-11-19T05:21:13;99887.34;;;10.04;100.00
22440;BME280;11387;51.612;7.210;2023-11-19T05:23:41;99881.69;;;10.00;100.00
22440;BME280;11387;51.612;7.210;2023-11-19T05:26:17;99889.75;;;10.05;100.00
22440;BME280;11387;51.612;7.210;2023-11-19T05:28:47;99888.25;;;10.22;100.00
22440;BME280;11387;51.612;7.210;2023-11-19T05:31:17;99888.03;;;10.18;100.00
22440;BME280;11387;51.612;7.210;2023-11-19T05:33:46;99885.31;;;10.18;100.00
22440;BME280;11387;51.612;7.210;2023-11-19T05:36:14;99886.97;;;10.19;100.00
22440;BME280;11387;51.612;7.210;2023-11-19T05:38:43;99881.28;;;10.16;100.00
22440;BME280;11387;51.612;7.210;2023-11-19T05:41:12;99882.97;;;10.25;100.00
22440;BME280;11387;51.612;7.210;2023-11-19T05:43:40;99869.34;;;10.34;100.00
22440;BME280;11387;51.612;7.210;2023-11-19T05:46:10;99877.56;;;10.34;100.00
22440;BME280;11387;51.612;7.210;2023-11-19T05:48:43;99881.72;;;10.31;100.00
22440;BME280;11387;51.612;7.210;2023-11-19T05:51:13;99878.22;;;10.39;100.00
22440;BME280;11387;51.612;7.210;2023-11-19T05:53:43;99882.91;;;10.48;100.00
22440;BME280;11387;51.612;7.210;2023-11-19T05:56:13;99886.91;;;10.41;100.00
22440;BME280;11387;51.612;7.210;2023-11-19T05:58:43;99885.72;;;10.25;100.00
22440;BME280;11387;51.612;7.210;2023-11-19T06:01:13;99891.53;;;10.32;100.00
22440;BME280;11387;51.612;7.210;2023-11-19T06:03:42;99870.44;;;10.24;100.00
22440;BME280;11387;51.612;7.210;2023-11-19T06:06:14;99885.63;;;10.17;100.00
22440;BME280;11387;51.612;7.210;2023-11-19T06:08:43;99885.22;;;10.23;100.00
22440;BME280;11387;51.612;7.210;2023-11-19T06:11:12;99880.47;;;10.15;100.00
22440;BME280;11387;51.612;7.210;2023-11-19T06:13:45;99885.59;;;10.08;100.00
22440;BME280;11387;51.612;7.210;2023-11-19T06:16:19;99892.19;;;10.07;100.00
22440;BME280;11387;51.612;7.210;2023-11-19T06:18:47;99885.94;;;10.15;100.00
22440;BME280;11387;51.612;7.210;2023-11-19T06:21:16;99891.59;;;10.19;100.00
22440;BME280;11387;51.612;7.210;2023-11-19T06:23:44;99895.97;;;10.20;100.00
22440;BME280;11387;51.612;7.210;2023-11-19T06:26:13;99895.44;;;10.18;100.00
22440;BME280;11387;51.612;7.210;2023-11-19T06:28:42;99899.50;;;10.20;100.00
22440;BME280;11387;51.612;7.210;2023-11-19T06:31:10;99896.88;;;10.15;100.00
22440;BME280;11387;51.612;7.210;2023-11-19T06:33:40;99897.19;;;10.13;100.00
22440;BME280;11387;51.612;7.210;2023-11-19T06:36:09;99903.94;;;10.16;100.00
22440;BME280;11387;51.612;7.210;2023-11-19T06:38:37;99897.47;;;10.03;100.00
22440;BME280;11387;51.612;7.210;2023-11-19T06:41:07;99895.38;;;10.09;100.00
22440;BME280;11387;51.612;7.210;2023-11-19T06:43:36;99906.81;;;10.11;100.00
22440;BME280;11387;51.612;7.210;2023-11-19T06:46:14;99908.75;;;10.10;100.00
22440;BME280;11387;51.612;7.210;2023-11-19T06:48:44;99911.78;;;10.09;100.00
22440;BME280;11387;51.612;7.210;2023-11-19T06:51:13;99915.00;;;10.11;100.00
22440;BME280;11387;51.612;7.210;2023-11-19T06:53:42;99916.41;;;10.22;100.00
22440;BME280;11387;51.612;7.210;2023-11-19T06:56:19;99920.50;;;10.33;100.00
22440;BME280;11387;51.612;7.210;2023-11-19T06:58:48;99928.13;;;10.54;100.00
22440;BME280;11387;51.612;7.210;2023-11-19T07:01:17;99930.88;;;10.54;100.00
22440;BME280;11387;51.612;7.210;2023-11-19T07:03:48;99927.81;;;10.55;100.00
22440;BME280;11387;51.612;7.210;2023-11-19T07:06:17;99926.25;;;10.63;100.00
22440;BME280;11387;51.612;7.210;2023-11-19T07:08:45;99921.47;;;10.77;100.00
22440;BME280;11387;51.612;7.210;2023-11-19T07:11:14;99926.97;;;10.86;100.00
22440;BME280;11387;51.612;7.210;2023-11-19T07:13:44;99931.16;;;10.83;100.00
22440;BME280;11387;51.612;7.210;2023-11-19T07:16:14;99949.81;;;10.81;100.00
22440;BME280;11387;51.612;7.210;2023-11-19T07:18:42;99937.25;;;10.80;100.00
22440;BME280;11387;51.612;7.210;2023-11-19T07:21:13;99953.53;;;10.85;100.00
22440;BME280;11387;51.612;7.210;2023-11-19T07:23:41;99939.84;;;10.85;100.00
22440;BME280;11387;51.612;7.210;2023-11-19T07:26:11;99952.59;;;10.90;100.00
22440;BME280;11387;51.612;7.210;2023-11-19T07:28:46;99948.41;;;10.92;100.00
22440;BME280;11387;51.612;7.210;2023-11-19T07:31:16;99956.78;;;10.96;100.00
22440;BME280;11387;51.612;7.210;2023-11-19T07:33:47;99950.19;;;11.05;100.00
22440;BME280;11387;51.612;7.210;2023-11-19T07:36:18;99957.63;;;11.13;100.00
22440;BME280;11387;51.612;7.210;2023-11-19T07:38:46;99955.03;;;11.08;100.00
22440;BME280;11387;51.612;7.210;2023-11-19T07:41:15;99947.78;;;11.04;100.00
22440;BME280;11387;51.612;7.210;2023-11-19T07:43:43;99948.09;;;11.02;100.00
22440;BME280;11387;51.612;7.210;2023-11-19T07:46:13;99948.59;;;11.04;100.00
22440;BME280;11387;51.612;7.210;2023-11-19T07:48:42;99952.44;;;10.95;100.00
22440;BME280;11387;51.612;7.210;2023-11-19T07:51:11;99957.13;;;11.03;100.00
22440;BME280;11387;51.612;7.210;2023-11-19T07:53:41;99955.53;;;11.10;100.00
22440;BME280;11387;51.612;7.210;2023-11-19T07:56:10;99968.94;;;11.21;100.00
22440;BME280;11387;51.612;7.210;2023-11-19T07:58:40;99969.91;;;11.33;100.00
22440;BME280;11387;51.612;7.210;2023-11-19T08:01:09;99972.22;;;11.74;100.00
22440;BME280;11387;51.612;7.210;2023-11-19T08:03:38;99982.56;;;11.95;100.00
22440;BME280;11387;51.612;7.210;2023-11-19T08:06:08;99978.50;;;12.27;100.00
22440;BME280;11387;51.612;7.210;2023-11-19T08:08:36;99993.31;;;12.43;100.00
22440;BME280;11387;51.612;7.210;2023-11-19T08:11:07;99987.84;;;12.34;100.00
22440;BME280;11387;51.612;7.210;2023-11-19T08:13:35;99984.16;;;12.13;100.00
22440;BME280;11387;51.612;7.210;2023-11-19T08:16:05;99996.75;;;11.97;100.00
22440;BME280;11387;51.612;7.210;2023-11-19T08:18:34;99998.38;;;11.80;100.00
22440;BME280;11387;51.612;7.210;2023-11-19T08:21:02;99998.88;;;11.83;100.00
22440;BME280;11387;51.612;7.210;2023-11-19T08:23:32;99996.44;;;11.81;100.00
22440;BME280;11387;51.612;7.210;2023-11-19T08:26:00;99990.91;;;11.72;100.00
22440;BME280;11387;51.612;7.210;2023-11-19T08:28:30;99993.53;;;11.77;100.00
22440;BME280;11387;51.612;7.210;2023-11-19T08:31:02;100000.09;;;12.28;100.00
22440;BME280;11387;51.612;7.210;2023-11-19T08:33:32;99997.28;;;12.63;97.63
22440;BME280;11387;51.612;7.210;2023-11-19T08:36:00;100001.56;;;12.34;98.68
22440;BME280;11387;51.612;7.210;2023-11-19T08:38:31;99997.72;;;12.18;99.56
22440;BME280;11387;51.612;7.210;2023-11-19T08:40:59;99993.53;;;12.03;100.00
22440;BME280;11387;51.612;7.210;2023-11-19T08:43:29;100010.13;;;12.07;100.00
22440;BME280;11387;51.612;7.210;2023-11-19T08:46:00;99995.47;;;12.20;100.00
22440;BME280;11387;51.612;7.210;2023-11-19T08:48:28;99994.47;;;12.33;99.33
22440;BME280;11387;51.612;7.210;2023-11-19T08:50:57;99996.88;;;12.43;98.43
22440;BME280;11387;51.612;7.210;2023-11-19T08:53:26;99996.22;;;12.46;97.57
22440;BME280;11387;51.612;7.210;2023-11-19T08:55:55;99983.81;;;12.40;97.56
22440;BME280;11387;51.612;7.210;2023-11-19T08:58:23;99987.94;;;12.55;97.37
22440;BME280;11387;51.612;7.210;2023-11-19T09:00:52;99997.41;;;12.84;96.26
22440;BME280;11387;51.612;7.210;2023-11-19T09:03:22;99991.72;;;13.98;90.02
22440;BME280;11387;51.612;7.210;2023-11-19T09:05:53;100000.81;;;13.90;88.19
22440;BME280;11387;51.612;7.210;2023-11-19T09:08:22;100009.94;;;13.61;89.76
22440;BME280;11387;51.612;7.210;2023-11-19T09:10:51;100002.78;;;13.68;88.21
22440;BME280;11387;51.612;7.210;2023-11-19T09:13:19;99996.06;;;13.57;89.07
22440;BME280;11387;51.612;7.210;2023-11-19T09:15:48;99997.13;;;13.44;89.44
22440;BME280;11387;51.612;7.210;2023-11-19T09:18:17;100009.25;;;13.05;91.77
22440;BME280;11387;51.612;7.210;2023-11-19T09:20:47;100016.16;;;12.73;93.59
22440;BME280;11387;51.612;7.210;2023-11-19T09:23:16;100016.38;;;12.51;95.57
22440;BME280;11387;51.612;7.210;2023-11-19T09:25:44;100007.53;;;12.36;97.00
22440;BME280;11387;51.612;7.210;2023-11-19T09:28:13;100001.25;;;12.27;97.54
22440;BME280;11387;51.612;7.210;2023-11-19T09:30:41;100003.66;;;12.29;97.34
22440;BME280;11387;51.612;7.210;2023-11-19T09:33:10;99994.19;;;12.09;97.88
22440;BME280;11387;51.612;7.210;2023-11-19T09:35:39;100000.47;;;12.09;98.69
22440;BME280;11387;51.612;7.210;2023-11-19T09:38:09;99995.94;;;12.05;98.77
22440;BME280;11387;51.612;7.210;2023-11-19T09:40:40;100005.47;;;11.99;99.47
22440;BME280;11387;51.612;7.210;2023-11-19T09:43:10;100008.53;;;12.06;99.80
22440;BME280;11387;51.612;7.210;2023-11-19T09:45:47;100008.69;;;12.01;99.69
22440;BME280;11387;51.612;7.210;2023-11-19T09:48:18;100008.03;;;11.95;99.46
22440;BME280;11387;51.612;7.210;2023-11-19T09:50:47;99998.69;;;12.22;98.57
22440;BME280;11387;51.612;7.210;2023-11-19T09:53:18;100008.16;;;12.97;94.32
22440;BME280;11387;51.612;7.210;2023-11-19T09:55:47;100007.84;;;12.90;94.36
22440;BME280;11387;51.612;7.210;2023-11-19T09:58:16;100007.13;;;12.64;94.98
22440;BME280;11387;51.612;7.210;2023-11-19T10:00:45;100012.97;;;12.54;95.36
22440;BME280;11387;51.612;7.210;2023-11-19T10:03:26;100015.44;;;12.46;96.11
22440;BME280;11387;51.612;7.210;2023-11-19T10:05:55;100004.31;;;12.26;97.09
22440;BME280;11387;51.612;7.210;2023-11-19T10:08:28;100007.72;;;12.14;97.46
22440;BME280;11387;51.612;7.210;2023-11-19T10:10:56;100005.31;;;12.12;98.15
22440;BME280;11387;51.612;7.210;2023-11-19T10:13:26;100001.59;;;12.00;98.76
22440;BME280;11387;51.612;7.210;2023-11-19T10:15:58;99997.06;;;12.21;98.41
22440;BME280;11387;51.612;7.210;2023-11-19T10:18:27;99988.03;;;12.21;98.03
22440;BME280;11387;51.612;7.210;2023-11-19T10:20:56;99992.41;;;12.22;98.00
22440;BME280;11387;51.612;7.210;2023-11-19T10:23:25;99987.56;;;12.10;98.53
22440;BME280;11387;51.612;7.210;2023-11-19T10:26:02;99989.00;;;11.99;100.00
22440;BME280;11387;51.612;7.210;2023-11-19T10:28:39;99990.09;;;11.72;100.00
22440;BME280;11387;51.612;7.210;2023-11-19T10:31:07;99990.28;;;11.58;100.00
22440;BME280;11387;51.612;7.210;2023-11-19T10:33:36;99981.06;;;11.54;100.00
22440;BME280;11387;51.612;7.210;2023-11-19T10:36:05;99985.56;;;11.41;100.00
22440;BME280;11387;51.612;7.210;2023-11-19T10:38:34;99976.38;;;11.46;100.00
22440;BME280;11387;51.612;7.210;2023-11-19T10:41:04;99989.31;;;11.54;100.00
22440;BME280;11387;51.612;7.210;2023-11-19T10:43:42;99981.56;;;11.73;100.00
22440;BME280;11387;51.612;7.210;2023-11-19T10:46:13;99980.00;;;11.81;100.00
22440;BME280;11387;51.612;7.210;2023-11-19T10:48:46;99982.25;;;11.88;100.00
22440;BME280;11387;51.612;7.210;2023-11-19T10:51:18;99974.50;;;11.98;100.00
22440;BME280;11387;51.612;7.210;2023-11-19T10:53:49;99967.72;;;12.13;99.67
22440;BME280;11387;51.612;7.210;2023-11-19T10:56:20;99977.56;;;12.14;99.23
22440;BME280;11387;51.612;7.210;2023-11-19T10:58:53;99973.53;;;12.11;99.12
22440;BME280;11387;51.612;7.210;2023-11-19T11:01:23;99989.19;;;12.11;99.74
22440;BME280;11387;51.612;7.210;2023-11-19T11:03:55;99982.56;;;12.03;100.00
22440;BME280;11387;51.612;7.210;2023-11-19T11:06:26;99988.16;;;12.33;99.68
22440;BME280;11387;51.612;7.210;2023-11-19T11:08:56;99991.38;;;12.43;98.19
22440;BME280;11387;51.612;7.210;2023-11-19T11:11:28;99988.00;;;12.46;97.31
22440;BME280;11387;51.612;7.210;2023-11-19T11:13:58;99988.47;;;12.40;98.42
22440;BME280;11387;51.612;7.210;2023-11-19T11:16:30;99981.84;;;12.50;98.15
22440;BME280;11387;51.612;7.210;2023-11-19T11:19:00;99973.97;;;12.39;96.25
22440;BME280;11387;51.612;7.210;2023-11-19T11:21:30;99964.44;;;12.45;96.52
22440;BME280;11387;51.612;7.210;2023-11-19T11:24:19;99972.81;;;12.40;95.81
22440;BME280;11387;51.612;7.210;2023-11-19T11:27:24;99976.53;;;12.36;94.85
22440;BME280;11387;51.612;7.210;2023-11-19T11:30:05;99986.06;;;12.38;96.09
22440;BME280;11387;51.612;7.210;2023-11-19T11:32:43;99983.81;;;12.40;95.46
22440;BME280;11387;51.612;7.210;2023-11-19T11:35:24;99976.06;;;12.42;94.27
22440;BME280;11387;51.612;7.210;2023-11-19T11:38:03;99976.00;;;12.60;93.65
22440;BME280;11387;51.612;7.210;2023-11-19T11:40:32;99980.16;;;12.74;92.91
22440;BME280;11387;51.612;7.210;2023-11-19T11:43:02;99982.88;;;12.83;92.96
22440;BME280;11387;51.612;7.210;2023-11-19T11:45:36;99976.09;;;12.80;91.75
22440;BME280;11387;51.612;7.210;2023-11-19T11:48:12;99968.78;;;12.85;92.26
22440;BME280;11387;51.612;7.210;2023-11-19T11:50:48;99961.00;;;12.95;90.83
22440;BME280;11387;51.612;7.210;2023-11-19T11:53:18;99954.53;;;13.29;90.31
22440;BME280;11387;51.612;7.210;2023-11-19T11:55:57;99956.72;;;13.65;87.68
22440;BME280;11387;51.612;7.210;2023-11-19T11:58:31;99950.41;;;13.86;84.93
22440;BME280;11387;51.612;7.210;2023-11-19T12:01:02;99941.75;;;13.96;84.29
22440;BME280;11387;51.612;7.210;2023-11-19T12:03:33;99945.09;;;13.80;84.78
22440;BME280;11387;51.612;7.210;2023-11-19T12:06:02;99956.06;;;13.68;85.80
22440;BME280;11387;51.612;7.210;2023-11-19T12:08:34;99935.25;;;13.79;85.05
22440;BME280;11387;51.612;7.210;2023-11-19T12:11:23;99930.34;;;15.89;75.99
22440;BME280;11387;51.612;7.210;2023-11-19T12:13:56;99944.56;;;16.19;71.11
22440;BME280;11387;51.612;7.210;2023-11-19T12:16:37;99955.28;;;15.28;73.95
22440;BME280;11387;51.612;7.210;2023-11-19T12:19:13;99946.84;;;14.18;78.53
22440;BME280;11387;51.612;7.210;2023-11-19T12:21:42;99945.09;;;13.80;80.58
22440;BME280;11387;51.612;7.210;2023-11-19T12:24:13;99942.63;;;13.46;83.28
22440;BME280;11387;51.612;7.210;2023-11-19T12:26:43;99935.66;;;13.28;83.89
22440;BME280;11387;51.612;7.210;2023-11-19T12:29:17;99937.81;;;13.13;85.38
22440;BME280;11387;51.612;7.210;2023-11-19T12:31:53;99935.34;;;13.21;85.95
22440;BME280;11387;51.612;7.210;2023-11-19T12:34:40;99926.88;;;13.34;84.52
22440;BME280;11387;51.612;7.210;2023-11-19T12:37:12;99923.94;;;13.39;83.74
22440;BME280;11387;51.612;7.210;2023-11-19T12:39:45;99916.97;;;13.42;84.65
22440;BME280;11387;51.612;7.210;2023-11-19T12:42:13;99918.22;;;13.24;84.08
22440;BME280;11387;51.612;7.210;2023-11-19T12:44:55;99891.69;;;13.28;84.37
22440;BME280;11387;51.612;7.210;2023-11-19T12:47:24;99912.31;;;13.55;82.76
22440;BME280;11387;51.612;7.210;2023-11-19T12:49:58;99906.03;;;13.33;83.01
22440;BME280;11387;51.612;7.210;2023-11-19T12:52:27;99909.31;;;13.27;84.08
22440;BME280;11387;51.612;7.210;2023-11-19T12:54:56;99907.78;;;13.08;84.29
22440;BME280;11387;51.612;7.210;2023-11-19T12:57:36;99906.19;;;12.78;87.92
22440;BME280;11387;51.612;7.210;2023-11-19T13:00:19;99920.56;;;12.28;94.13
22440;BME280;11387;51.612;7.210;2023-11-19T13:02:52;99928.69;;;11.73;100.00
22440;BME280;11387;51.612;7.210;2023-11-19T13:05:23;99930.41;;;11.08;100.00
22440;BME280;11387;51.612;7.210;2023-11-19T13:08:01;99917.44;;;10.74;100.00
22440;BME280;11387;51.612;7.210;2023-11-19T13:10:30;99937.69;;;10.65;100.00